EGYD

RAF Cranwell Airport

Cranwell, United Kingdom
METAR EGYD 181550Z 06010KT CAVOK 08/03 Q1029 BLU NOSIG
Observed Flight Rules
Nov-18 @ 15:50 UTC (an hour ago) Visual Flight Rules
Wind Visibility Clouds
60° at 10 knots 10,000+ meters
  • Clear skies
Temperatures Readings
Current 8°C / 46°F
Dewpoint 3°C / 37°F
Humidity 71%
Altimeter 30.38" Hg
Pressure 1029 hPa
Elevation 67
METAR EGYD 181550Z 06010KT CAVOK 08/03 Q1029 BLU NOSIG
Observed Flight Rules
Nov-18 @ 15:50 UTC
(an hour ago)
VFR
Wind Visibility
60° at 10 knots 10,000+ meters
Clouds
  • Clear skies
Temperature Dewpoint
8°C / 46°F 3°C / 37°F
Humidity Altimeter Pressure
71% 30.38" Hg 1029 hPa